createdAt,value
2023-01-22T00:01:18.115Z,9.00
2023-01-22T00:03:46.954Z,8.40
2023-01-22T00:06:15.435Z,9.32
2023-01-22T00:08:42.781Z,9.80
2023-01-22T00:11:11.255Z,8.50
2023-01-22T00:13:38.358Z,9.02
2023-01-22T00:16:06.294Z,8.98
2023-01-22T00:18:33.702Z,8.00
2023-01-22T00:21:01.015Z,8.25
2023-01-22T00:23:28.141Z,8.38
2023-01-22T00:26:11.454Z,9.05
2023-01-22T00:28:41.837Z,8.00
2023-01-22T00:31:10.416Z,10.07
2023-01-22T00:33:39.265Z,8.30
2023-01-22T00:36:08.271Z,8.15
2023-01-22T00:38:35.742Z,8.77
2023-01-22T00:41:07.472Z,8.23
2023-01-22T00:43:38.843Z,10.25
2023-01-22T00:46:07.352Z,10.40
2023-01-22T00:48:34.915Z,9.75
2023-01-22T00:51:02.043Z,9.73
2023-01-22T00:53:29.137Z,11.10
2023-01-22T00:55:59.336Z,10.30
2023-01-22T00:58:27.443Z,10.40
2023-01-22T01:00:55.607Z,10.25
2023-01-22T01:03:32.166Z,10.73
2023-01-22T01:06:13.243Z,9.60
2023-01-22T01:08:42.491Z,9.60
2023-01-22T01:11:14.184Z,9.68
2023-01-22T01:13:43.265Z,8.85
2023-01-22T01:16:31.161Z,8.70
2023-01-22T01:19:04.000Z,9.00
2023-01-22T01:21:31.359Z,8.77
2023-01-22T01:24:00.006Z,8.95
2023-01-22T01:26:28.007Z,8.65
2023-01-22T01:28:55.080Z,8.18
2023-01-22T01:31:26.603Z,8.27
2023-01-22T01:33:53.679Z,9.48
2023-01-22T01:36:46.354Z,8.77
2023-01-22T01:39:11.144Z,10.20
2023-01-22T01:41:38.129Z,8.32
2023-01-22T01:44:16.457Z,9.85
2023-01-22T01:47:08.171Z,9.52
2023-01-22T01:49:44.682Z,9.65
2023-01-22T01:52:14.756Z,9.50
2023-01-22T01:54:47.073Z,9.25
2023-01-22T01:57:19.707Z,9.15
2023-01-22T01:59:48.214Z,9.85
2023-01-22T02:02:16.876Z,8.40
2023-01-22T02:04:43.949Z,9.45
2023-01-22T02:07:11.035Z,9.02
2023-01-22T02:09:38.100Z,8.95
2023-01-22T02:12:05.427Z,8.48
2023-01-22T02:14:37.142Z,8.88
2023-01-22T02:17:18.442Z,9.45
2023-01-22T02:19:45.613Z,8.60
2023-01-22T02:22:35.276Z,9.52
2023-01-22T02:25:02.258Z,9.00
2023-01-22T02:27:29.267Z,9.02
2023-01-22T02:29:56.371Z,8.88
2023-01-22T02:32:23.388Z,8.82
2023-01-22T02:34:50.531Z,8.82
2023-01-22T02:37:18.237Z,10.25
2023-01-22T02:39:45.269Z,8.63
2023-01-22T02:42:13.037Z,9.10
2023-01-22T02:44:40.108Z,9.48
2023-01-22T02:47:07.342Z,9.38
2023-01-22T02:49:34.351Z,8.98
2023-01-22T02:52:01.413Z,8.10
2023-01-22T02:54:28.443Z,9.43
2023-01-22T02:56:56.881Z,8.65
2023-01-22T02:59:24.154Z,8.70
2023-01-22T03:01:51.936Z,8.55
2023-01-22T03:04:19.075Z,8.88
2023-01-22T03:06:47.267Z,8.82
2023-01-22T03:09:17.139Z,8.82
2023-01-22T03:11:45.826Z,8.30
2023-01-22T03:14:32.452Z,8.70
2023-01-22T03:17:18.540Z,8.30
2023-01-22T03:20:04.329Z,8.98
2023-01-22T03:22:31.527Z,8.93
2023-01-22T03:25:00.713Z,8.63
2023-01-22T03:27:30.265Z,8.32
2023-01-22T03:29:57.971Z,9.32
2023-01-22T03:32:25.129Z,7.78
2023-01-22T03:34:52.156Z,8.80
2023-01-22T03:37:19.330Z,9.30
2023-01-22T03:39:46.409Z,8.13
2023-01-22T03:42:13.511Z,9.10
2023-01-22T03:44:40.504Z,8.63
2023-01-22T03:47:07.581Z,9.63
2023-01-22T03:49:34.628Z,9.07
2023-01-22T03:52:01.639Z,8.75
2023-01-22T03:54:28.677Z,7.53
2023-01-22T03:56:55.754Z,9.75
2023-01-22T03:59:22.820Z,8.73
2023-01-22T04:01:51.032Z,7.97
2023-01-22T04:04:18.161Z,7.43
2023-01-22T04:06:45.167Z,8.52
2023-01-22T04:09:12.243Z,7.95
2023-01-22T04:11:39.320Z,9.07
2023-01-22T04:14:06.383Z,9.57
2023-01-22T04:16:33.400Z,8.48
2023-01-22T04:19:00.426Z,8.45
2023-01-22T04:21:27.476Z,8.18
2023-01-22T04:23:54.551Z,7.32
2023-01-22T04:26:21.575Z,8.05
2023-01-22T04:28:48.715Z,8.65
2023-01-22T04:31:15.804Z,9.15
2023-01-22T04:33:42.848Z,8.20
2023-01-22T04:36:10.275Z,8.90
2023-01-22T04:38:37.223Z,9.60
2023-01-22T04:41:04.287Z,8.57
2023-01-22T04:43:31.284Z,9.60
2023-01-22T04:45:58.319Z,10.10
2023-01-22T04:48:25.446Z,9.25
2023-01-22T04:50:52.471Z,9.32
2023-01-22T04:53:19.586Z,8.75
2023-01-22T04:55:46.594Z,8.35
2023-01-22T04:58:13.576Z,7.78
2023-01-22T05:00:40.666Z,7.45
2023-01-22T05:03:07.646Z,7.85
2023-01-22T05:05:34.715Z,9.25
2023-01-22T05:08:02.283Z,8.23
2023-01-22T05:10:29.514Z,8.98
2023-01-22T05:12:57.377Z,7.95
2023-01-22T05:15:25.306Z,7.95
2023-01-22T05:17:53.778Z,7.05
2023-01-22T05:20:21.739Z,7.60
2023-01-22T05:22:49.081Z,8.68
2023-01-22T05:25:16.210Z,8.07
2023-01-22T05:27:43.842Z,7.57
2023-01-22T05:30:12.872Z,8.50
2023-01-22T05:32:40.179Z,8.70
2023-01-22T05:35:07.913Z,8.30
2023-01-22T05:37:34.940Z,8.65
2023-01-22T05:40:02.264Z,7.45
2023-01-22T05:42:29.324Z,7.35
2023-01-22T05:44:56.393Z,8.65
2023-01-22T05:47:23.389Z,8.60
2023-01-22T05:49:50.408Z,8.93
2023-01-22T05:52:17.461Z,8.32
2023-01-22T05:54:44.525Z,9.55
2023-01-22T05:57:11.697Z,8.38
2023-01-22T05:59:38.743Z,8.60
2023-01-22T06:02:05.757Z,9.07
2023-01-22T06:04:32.909Z,8.80
2023-01-22T06:07:00.027Z,10.18
2023-01-22T06:09:27.054Z,9.10
2023-01-22T06:11:54.073Z,9.52
2023-01-22T06:14:21.130Z,8.77
2023-01-22T06:16:48.238Z,8.52
2023-01-22T06:19:15.259Z,8.80
2023-01-22T06:21:44.041Z,8.75
2023-01-22T06:24:11.398Z,8.73
2023-01-22T06:26:38.573Z,9.88
2023-01-22T06:29:05.831Z,10.15
2023-01-22T06:31:33.036Z,10.30
2023-01-22T06:34:00.222Z,10.02
2023-01-22T06:36:27.909Z,10.80
2023-01-22T06:38:55.049Z,10.27
2023-01-22T06:41:23.381Z,10.35
2023-01-22T06:43:50.402Z,10.25
2023-01-22T06:46:17.511Z,9.30
2023-01-22T06:48:44.623Z,9.20
2023-01-22T06:51:12.395Z,10.40
2023-01-22T06:53:40.185Z,10.48
2023-01-22T06:56:07.667Z,10.68
2023-01-22T06:58:34.708Z,10.20
2023-01-22T07:01:03.108Z,11.45
2023-01-22T07:03:30.487Z,10.02
2023-01-22T07:05:59.698Z,11.25
2023-01-22T07:08:28.229Z,13.00
2023-01-22T07:10:55.283Z,12.30
2023-01-22T07:13:22.930Z,11.38
2023-01-22T07:15:50.592Z,12.55
2023-01-22T07:18:20.124Z,12.73
2023-01-22T07:20:47.770Z,12.05
2023-01-22T07:23:14.816Z,12.13
2023-01-22T07:25:42.467Z,11.45
2023-01-22T07:28:10.953Z,12.20
2023-01-22T07:30:39.216Z,10.00
2023-01-22T07:33:06.281Z,11.43
2023-01-22T07:35:33.336Z,12.57
2023-01-22T07:38:01.205Z,11.55
2023-01-22T07:40:28.495Z,12.80
2023-01-22T07:42:56.199Z,11.30
2023-01-22T07:45:25.190Z,11.55
2023-01-22T07:47:56.271Z,11.10
2023-01-22T07:50:26.150Z,10.30
2023-01-22T07:52:53.735Z,10.52
2023-01-22T07:55:21.294Z,9.90
2023-01-22T07:57:48.344Z,10.95
2023-01-22T08:00:16.446Z,10.77
2023-01-22T08:02:43.727Z,10.05
2023-01-22T08:05:14.210Z,10.65
2023-01-22T08:07:41.247Z,10.68
2023-01-22T08:10:09.918Z,10.48
2023-01-22T08:12:38.665Z,10.88
2023-01-22T08:15:06.164Z,10.25
2023-01-22T08:17:33.199Z,10.52
2023-01-22T08:20:00.301Z,11.23
2023-01-22T08:22:27.323Z,10.68
2023-01-22T08:24:54.607Z,10.73
2023-01-22T08:27:22.574Z,10.20
2023-01-22T08:29:52.294Z,9.48
2023-01-22T08:32:20.113Z,8.77
2023-01-22T08:34:47.154Z,9.85
2023-01-22T08:37:14.225Z,10.85
2023-01-22T08:39:41.262Z,10.70
2023-01-22T08:42:08.259Z,10.73
2023-01-22T08:44:35.287Z,12.15
2023-01-22T08:47:02.408Z,11.52
2023-01-22T08:49:31.053Z,10.52
2023-01-22T08:51:58.497Z,9.35
2023-01-22T08:54:26.572Z,10.10
2023-01-22T08:56:53.682Z,9.02
2023-01-22T08:59:20.822Z,10.43
2023-01-22T09:01:48.009Z,9.77
2023-01-22T09:04:15.081Z,9.85
2023-01-22T09:06:42.216Z,11.65
2023-01-22T09:09:09.266Z,12.10
2023-01-22T09:11:36.365Z,12.13
2023-01-22T09:14:04.105Z,10.07
2023-01-22T09:16:33.695Z,9.10
2023-01-22T09:19:00.818Z,9.55
2023-01-22T09:21:27.815Z,10.50
2023-01-22T09:23:54.873Z,8.90
2023-01-22T09:26:22.023Z,9.80
2023-01-22T09:28:49.069Z,10.35
2023-01-22T09:31:17.288Z,8.75
2023-01-22T09:33:44.689Z,8.68
2023-01-22T09:36:16.408Z,9.57
2023-01-22T09:38:44.548Z,8.68
2023-01-22T09:41:28.474Z,9.20
2023-01-22T09:44:05.499Z,9.65
2023-01-22T09:47:18.824Z,9.35
2023-01-22T09:49:45.789Z,8.93
2023-01-22T09:52:12.880Z,7.85
2023-01-22T09:54:40.677Z,8.20
2023-01-22T09:57:19.900Z,8.23
2023-01-22T09:59:58.370Z,8.45
2023-01-22T10:02:39.360Z,7.40
2023-01-22T10:05:21.185Z,7.25
2023-01-22T10:07:54.318Z,7.80
2023-01-22T10:10:26.359Z,7.32
2023-01-22T10:12:58.570Z,8.25
2023-01-22T10:15:25.785Z,7.43
2023-01-22T10:17:56.112Z,7.35
2023-01-22T10:20:24.893Z,7.70
2023-01-22T10:22:56.518Z,8.25
2023-01-22T10:25:23.516Z,6.45
2023-01-22T10:28:00.058Z,7.55
2023-01-22T10:30:29.407Z,7.85
2023-01-22T10:33:07.209Z,6.88
2023-01-22T10:38:32.819Z,6.75
2023-01-22T10:41:04.559Z,8.45
2023-01-22T10:43:39.208Z,7.53
2023-01-22T10:46:23.552Z,7.70
2023-01-22T10:49:06.079Z,8.45
2023-01-22T10:51:38.861Z,7.30
2023-01-22T10:54:21.206Z,7.15
2023-01-22T10:56:48.582Z,6.32
2023-01-22T10:59:26.632Z,6.38
2023-01-22T11:02:02.658Z,6.13
2023-01-22T11:04:33.332Z,6.13
2023-01-22T11:07:07.131Z,5.85
2023-01-22T11:09:40.221Z,5.53
2023-01-22T11:12:17.884Z,5.25
2023-01-22T11:14:48.049Z,5.15
2023-01-22T11:17:27.753Z,5.35
2023-01-22T11:20:00.765Z,4.93
2023-01-22T11:22:39.779Z,5.38
2023-01-22T11:25:11.895Z,5.78
2023-01-22T11:27:50.734Z,4.72
2023-01-22T11:30:24.407Z,6.03
2023-01-22T11:33:19.499Z,5.07
2023-01-22T11:36:14.479Z,5.40
2023-01-22T11:39:03.087Z,5.70
2023-01-22T11:42:05.308Z,5.40
2023-01-22T11:44:56.239Z,5.60
2023-01-22T11:47:29.061Z,6.15
2023-01-22T11:50:17.772Z,5.22
2023-01-22T11:52:54.894Z,6.25
2023-01-22T11:55:45.735Z,5.05
2023-01-22T11:58:29.857Z,5.95
2023-01-22T12:01:24.399Z,7.13
2023-01-22T12:04:00.940Z,6.10
2023-01-22T12:06:57.698Z,6.40
2023-01-22T12:09:43.168Z,5.50
2023-01-22T12:12:10.163Z,6.03
2023-01-22T12:15:06.401Z,7.35
2023-01-22T12:18:08.073Z,6.57
2023-01-22T12:20:59.392Z,7.22
2023-01-22T12:23:50.293Z,6.95
2023-01-22T12:26:31.095Z,6.30
2023-01-22T12:29:40.579Z,7.47
2023-01-22T12:32:15.540Z,5.78
2023-01-22T12:34:55.558Z,6.10
2023-01-22T12:37:29.025Z,5.32
2023-01-22T12:40:24.433Z,5.45
2023-01-22T12:43:04.101Z,5.65
2023-01-22T12:45:55.069Z,4.78
2023-01-22T12:48:31.186Z,5.18
2023-01-22T12:50:59.010Z,4.90
2023-01-22T12:53:34.682Z,4.85
2023-01-22T12:56:07.727Z,6.07
2023-01-22T12:58:40.779Z,5.13
2023-01-22T13:01:23.871Z,5.38
2023-01-22T13:04:03.920Z,5.10
2023-01-22T13:06:40.598Z,5.13
2023-01-22T13:09:25.300Z,5.28
2023-01-22T13:11:52.775Z,5.45
2023-01-22T13:14:28.986Z,5.68
2023-01-22T13:17:00.337Z,5.25
2023-01-22T13:19:31.145Z,5.63
2023-01-22T13:22:02.492Z,5.20
2023-01-22T13:24:29.620Z,5.60
2023-01-22T13:27:03.785Z,5.07
2023-01-22T13:29:37.862Z,5.78
2023-01-22T13:32:21.207Z,5.72
2023-01-22T13:34:49.033Z,6.18
2023-01-22T13:37:27.491Z,5.40
2023-01-22T13:39:54.896Z,5.40
2023-01-22T13:42:22.226Z,5.93
2023-01-22T13:44:52.034Z,4.78
2023-01-22T13:47:28.303Z,5.13
2023-01-22T13:49:55.747Z,6.90
2023-01-22T13:52:23.464Z,5.80
2023-01-22T13:55:02.533Z,6.18
2023-01-22T13:57:31.664Z,6.55
2023-01-22T14:00:01.684Z,6.82
2023-01-22T14:02:36.626Z,6.50
2023-01-22T14:05:04.223Z,5.70
2023-01-22T14:07:35.204Z,6.03
2023-01-22T14:10:25.914Z,7.30
2023-01-22T14:13:00.893Z,6.90
2023-01-22T14:15:28.597Z,6.28
2023-01-22T14:18:10.317Z,7.03
2023-01-22T14:20:41.791Z,6.32
2023-01-22T14:23:09.220Z,7.18
2023-01-22T14:25:51.051Z,7.97
2023-01-22T14:28:19.275Z,8.48
2023-01-22T14:30:47.075Z,8.00
2023-01-22T14:33:30.996Z,7.90
2023-01-22T14:35:59.153Z,6.80
2023-01-22T14:38:27.623Z,8.00
2023-01-22T14:40:55.644Z,7.50
2023-01-22T14:43:23.252Z,8.82
2023-01-22T14:45:52.267Z,7.90
2023-01-22T14:48:20.936Z,7.70
2023-01-22T14:50:49.645Z,8.88
2023-01-22T14:53:20.078Z,7.38
2023-01-22T14:55:47.680Z,8.40
2023-01-22T14:58:16.959Z,9.18
2023-01-22T15:00:45.168Z,8.40
2023-01-22T15:03:12.592Z,7.57
2023-01-22T15:05:40.009Z,9.45
2023-01-22T15:08:10.171Z,7.72
2023-01-22T15:10:37.914Z,8.40
2023-01-22T15:13:05.759Z,8.98
2023-01-22T15:15:37.998Z,8.27
2023-01-22T15:18:05.634Z,10.70
2023-01-22T15:20:33.136Z,22.35
2023-01-22T15:23:00.564Z,9.13
2023-01-22T15:25:28.447Z,11.40
2023-01-22T15:27:55.962Z,8.90
2023-01-22T15:30:23.186Z,8.63
2023-01-22T15:32:50.555Z,7.80
2023-01-22T15:35:18.136Z,7.85
2023-01-22T15:37:45.886Z,7.72
2023-01-22T15:40:13.920Z,8.60
2023-01-22T15:42:41.157Z,8.50
2023-01-22T15:45:08.895Z,8.60
2023-01-22T15:47:36.677Z,8.20
2023-01-22T15:50:04.387Z,9.38
2023-01-22T15:52:32.164Z,9.35
2023-01-22T15:54:59.781Z,12.07
2023-01-22T15:57:27.227Z,11.90
2023-01-22T15:59:55.036Z,17.02
2023-01-22T16:02:22.560Z,11.52
2023-01-22T16:04:49.889Z,8.57
2023-01-22T16:07:17.551Z,9.45
2023-01-22T16:09:45.358Z,9.32
2023-01-22T16:12:12.896Z,10.20
2023-01-22T16:14:40.645Z,10.73
2023-01-22T16:17:08.366Z,8.52
2023-01-22T16:19:36.247Z,9.43
2023-01-22T16:22:03.703Z,8.30
2023-01-22T16:24:31.482Z,8.85
2023-01-22T16:26:59.123Z,12.48
2023-01-22T16:29:27.107Z,12.70
2023-01-22T16:31:55.029Z,12.70
2023-01-22T16:34:23.046Z,10.82
2023-01-22T16:36:51.011Z,13.75
2023-01-22T16:39:25.347Z,9.80
2023-01-22T16:41:53.149Z,13.73
2023-01-22T16:44:27.730Z,12.30
2023-01-22T16:47:00.494Z,12.18
2023-01-22T16:49:34.023Z,15.70
2023-01-22T16:52:20.660Z,14.75
2023-01-22T16:54:49.938Z,13.95
2023-01-22T16:57:18.785Z,14.80
2023-01-22T16:59:50.015Z,14.95
2023-01-22T17:02:19.966Z,13.07
2023-01-22T17:04:48.501Z,13.27
2023-01-22T17:07:32.279Z,13.98
2023-01-22T17:10:01.814Z,12.48
2023-01-22T17:12:30.493Z,18.15
2023-01-22T17:14:58.483Z,15.57
2023-01-22T17:17:26.579Z,13.40
2023-01-22T17:19:54.951Z,15.15
2023-01-22T17:22:22.683Z,13.25
2023-01-22T17:24:52.983Z,13.32
2023-01-22T17:27:22.231Z,14.05
2023-01-22T17:29:51.368Z,16.40
2023-01-22T17:32:19.410Z,16.70
2023-01-22T17:34:47.374Z,15.85
2023-01-22T17:37:15.402Z,15.30
2023-01-22T17:39:46.603Z,14.98
2023-01-22T17:42:14.466Z,12.65
2023-01-22T17:44:43.591Z,14.15
2023-01-22T17:47:11.651Z,13.50
2023-01-22T17:49:39.780Z,13.70
2023-01-22T17:52:09.906Z,13.02
2023-01-22T17:54:38.073Z,12.52
2023-01-22T17:57:06.179Z,12.38
2023-01-22T17:59:34.412Z,13.13
2023-01-22T18:02:02.278Z,14.40
2023-01-22T18:04:35.095Z,14.05
2023-01-22T18:07:05.187Z,13.98
2023-01-22T18:09:33.147Z,13.40
2023-01-22T18:12:03.113Z,27.02
2023-01-22T18:14:35.098Z,19.15
2023-01-22T18:17:02.676Z,17.85
2023-01-22T18:19:35.670Z,17.67
2023-01-22T18:22:05.050Z,18.55
2023-01-22T18:24:34.460Z,14.93
2023-01-22T18:27:03.571Z,17.27
2023-01-22T18:29:31.210Z,15.10
2023-01-22T18:31:59.707Z,14.90
2023-01-22T18:34:27.614Z,15.15
2023-01-22T18:36:58.446Z,13.43
2023-01-22T18:39:26.625Z,14.68
2023-01-22T18:41:54.801Z,11.82
2023-01-22T18:44:28.386Z,12.25
2023-01-22T18:46:58.896Z,12.82
2023-01-22T18:49:29.122Z,11.30
2023-01-22T18:52:01.497Z,13.48
2023-01-22T18:54:30.006Z,12.82
2023-01-22T18:56:58.192Z,12.10
2023-01-22T18:59:25.613Z,12.90
2023-01-22T19:01:53.864Z,12.55
2023-01-22T19:04:24.672Z,10.93
2023-01-22T19:06:54.450Z,11.80
2023-01-22T19:09:22.465Z,11.95
2023-01-22T19:11:52.822Z,11.57
2023-01-22T19:14:21.826Z,10.65
2023-01-22T19:16:54.346Z,10.38
2023-01-22T19:19:25.643Z,10.35
2023-01-22T19:21:56.374Z,11.75
2023-01-22T19:24:29.165Z,9.68
2023-01-22T19:26:58.744Z,11.80
2023-01-22T19:29:27.211Z,11.52
2023-01-22T19:31:57.681Z,12.30
2023-01-22T19:34:29.760Z,11.02
2023-01-22T19:37:06.594Z,10.40
2023-01-22T19:39:35.807Z,11.40
2023-01-22T19:42:06.665Z,11.10
2023-01-22T19:44:37.656Z,10.93
2023-01-22T19:47:05.325Z,11.55
2023-01-22T19:49:33.464Z,12.50
2023-01-22T19:52:01.768Z,11.15
2023-01-22T19:54:30.069Z,11.40
2023-01-22T19:56:58.221Z,13.10
2023-01-22T19:59:26.526Z,14.93
2023-01-22T20:01:56.019Z,12.07
2023-01-22T20:04:27.064Z,11.75
2023-01-22T20:07:01.320Z,12.20
2023-01-22T20:09:32.420Z,13.00
2023-01-22T20:12:02.962Z,12.93
2023-01-22T20:14:34.555Z,14.52
2023-01-22T20:17:03.279Z,12.63
2023-01-22T20:19:33.980Z,11.40
2023-01-22T20:22:05.110Z,13.35
2023-01-22T20:24:33.702Z,12.80
2023-01-22T20:27:02.009Z,11.82
2023-01-22T20:29:31.940Z,11.57
2023-01-22T20:32:00.106Z,11.18
2023-01-22T20:34:27.784Z,10.95
2023-01-22T20:36:55.239Z,12.23
2023-01-22T20:39:26.144Z,10.88
2023-01-22T20:41:55.598Z,12.25
2023-01-22T20:44:24.874Z,12.05
2023-01-22T20:46:52.632Z,11.85
2023-01-22T20:49:20.499Z,12.98
2023-01-22T20:51:50.194Z,12.18
2023-01-22T20:54:18.790Z,12.63
2023-01-22T20:56:47.155Z,11.60
2023-01-22T20:59:19.821Z,11.02
2023-01-22T21:01:49.409Z,11.50
2023-01-22T21:04:18.883Z,12.50
2023-01-22T21:06:47.598Z,12.80
2023-01-22T21:09:15.855Z,11.70
2023-01-22T21:11:44.573Z,12.23
2023-01-22T21:14:21.105Z,11.82
2023-01-22T21:16:50.518Z,13.10
2023-01-22T21:19:24.209Z,11.10
2023-01-22T21:21:53.143Z,12.35
2023-01-22T21:24:22.656Z,11.93
2023-01-22T21:26:50.322Z,13.05
2023-01-22T21:29:22.607Z,11.60
2023-01-22T21:31:53.784Z,11.65
2023-01-22T21:34:24.570Z,12.80
2023-01-22T21:36:55.418Z,13.25
2023-01-22T21:39:24.852Z,11.73
2023-01-22T21:42:12.623Z,12.27
2023-01-22T21:44:58.149Z,12.40
2023-01-22T21:47:25.419Z,12.35
2023-01-22T21:49:52.862Z,13.85
2023-01-22T21:52:20.070Z,13.98
2023-01-22T21:54:47.333Z,14.73
2023-01-22T21:57:16.828Z,13.07
2023-01-22T21:59:46.817Z,13.90
2023-01-22T22:02:16.434Z,12.82
2023-01-22T22:04:43.718Z,13.25
2023-01-22T22:07:11.681Z,13.07
2023-01-22T22:09:38.817Z,13.90
2023-01-22T22:12:06.816Z,12.93
2023-01-22T22:14:33.826Z,12.98
2023-01-22T22:17:00.877Z,13.18
2023-01-22T22:19:29.089Z,13.30
2023-01-22T22:21:56.176Z,13.13
2023-01-22T22:24:23.230Z,12.63
2023-01-22T22:26:50.497Z,13.00
2023-01-22T22:29:17.565Z,13.82
2023-01-22T22:31:44.663Z,12.85
2023-01-22T22:34:11.662Z,14.05
2023-01-22T22:36:38.698Z,12.90
2023-01-22T22:39:08.798Z,13.93
2023-01-22T22:41:37.308Z,14.52
2023-01-22T22:44:05.476Z,14.00
2023-01-22T22:46:35.846Z,14.35
2023-01-22T22:49:04.647Z,14.90
2023-01-22T22:51:36.881Z,14.05
2023-01-22T22:54:07.972Z,12.68
2023-01-22T22:56:35.391Z,13.55
2023-01-22T22:59:03.759Z,13.63
2023-01-22T23:01:33.893Z,14.70
2023-01-22T23:04:01.125Z,13.88
2023-01-22T23:06:35.003Z,15.80
2023-01-22T23:09:05.682Z,13.77
2023-01-22T23:11:35.114Z,14.45
2023-01-22T23:14:03.251Z,14.55
2023-01-22T23:16:32.879Z,14.25
2023-01-22T23:19:04.369Z,15.00
2023-01-22T23:21:35.235Z,12.65
2023-01-22T23:24:03.384Z,14.10
2023-01-22T23:26:31.543Z,13.13
2023-01-22T23:29:02.385Z,15.63
2023-01-22T23:31:31.912Z,15.18
2023-01-22T23:34:00.756Z,15.20
2023-01-22T23:36:27.860Z,14.90
2023-01-22T23:38:55.435Z,13.90
2023-01-22T23:41:23.596Z,14.85
2023-01-22T23:43:51.200Z,14.02
2023-01-22T23:46:23.944Z,15.45
2023-01-22T23:48:51.289Z,14.88
2023-01-22T23:51:19.138Z,14.05
2023-01-22T23:53:50.280Z,15.23
2023-01-22T23:56:17.325Z,13.32
2023-01-22T23:58:44.577Z,14.15
